23°C Temp
20°C Dewpoint
83% Humidity
Temperature
21 KM/H
13 MPH
11 KTS
190°
Due South

Wind Speed
Light Rain
Showers
Pressure 1008.92 (hPa) - 29.79 (in)
Visibility 6.2 (mi) - 10.0 (km)

Current Conditions
LIMJ
Location 7(km)
Metar :LIMJ 041720Z 19011KT 9999 -RA SCT014 BKN045 23/20 Q1009
Wed 4th August 19:20 pm

Airport
  Metar Aviation API Data Provided by https://www.checkwx.com/ PHP scripts by weather34.com ©2021